< < Back
Terminal Aerodrome Forecast


Current Version              Previous Versions:   1  2  3  4  5  6  7  8  9  

Terminal Aerodrome Forecast

269
FTUS42 KJAX 200500
TAFSSI
TAF
KSSI 200520Z 2006/2106 24008KT P6SM FEW050 BKN200
     FM201300 27009KT P6SM SCT020 SCT250
     FM201800 22010KT P6SM SCT050
     FM210000 24008KT P6SM SCT250=



Latest METAR

207
SAUS70 KWBC 210200 RRH
MTRSSI
METAR KSSI 210153Z AUTO 00000KT 10SM CLR 29/26 A3003 RMK AO2 SLP170
T02890256


USA.gov is the U.S. government's official web portal to all federal, state and local government web resources and services.